Montevideo, MN

7:42 PM CST on December 05, 2016 (GMT -0600)
Montevideo-Chippewa County

Weather History for KMVE - September, 2014

Change the Weather History Date:

Tuesday, September 2, 2014

  Actual Average Record
Temperature  
Mean Temperature 68 °F -  
Max Temperature 80 °F 78 °F 93 °F (1964)
Min Temperature 55 °F 54 °F 40 °F (1972)
Cooling Degree Days 2    
Growing Degree Days 18 (Base 50)    
Moisture  
Dew Point 56 °F    
Average Humidity 70    
Maximum Humidity 100    
Minimum Humidity 39    
Precipitation  
Precipitation 0.00 in - - ()
Sea Level Pressure  
Sea Level Pressure 29.88 in    
Wind  
Wind Speed 5 mph (West)    
Max Wind Speed 13 mph    
Max Gust Speed 16 mph    
Visibility 10 miles    
Events      
Averages and records for this station are not official NWS values.
T = Trace of Precipitation, MM = Missing Value Source: NWS Daily Summary

Daily Weather History Graph

Daily Weather History Graph

Search for Another Location

Airport or City:

Trip Planner

Search our weather history database for the weather conditions in past years. The results will help you decide how hot, cold, wet, or windy it might be!

Date:

Astronomy

Sep. 02, 2014 Rise Set
Actual Time 6:46 AM CDT 7:57 PM CDT
Civil Twilight 6:15 AM CDT 8:28 PM CDT
Nautical Twilight 5:39 AM CDT 9:04 PM CDT
Astronomical Twilight 5:01 AM CDT 9:42 PM CDT
Moon 2:50 PM CDT (9/2) No Moon Set
Length of Visible Light 14h 12m
Length of Day
13h 11m
First Quarter, 53% of the Moon is Illuminated
Sep 2
First Quarter
Sep 8
Full
Sep 15
Last Quarter
Sep 24
New
Oct 1
First Quarter

Hourly Weather History & Observations

Time (CDT) Temp. Heat Index Dew Point Humidity Pressure Visibility Wind Dir Wind Speed Gust Speed Precip Events Conditions
12:14 AM 60.8 °F - 55.4 °F 82% 29.85 in 10.0 mi NW 3.5 mph - N/A   Clear
12:34 AM 60.8 °F - 55.4 °F 82% 29.85 in 10.0 mi NW 3.5 mph - N/A   Clear
12:53 AM 60.8 °F - 53.6 °F 77% 29.86 in 10.0 mi Calm Calm - N/A   Clear
1:14 AM 60.8 °F - 55.4 °F 82% 29.86 in 10.0 mi West 3.5 mph - N/A   Clear
1:33 AM 60.8 °F - 55.4 °F 82% 29.86 in 10.0 mi WNW 3.5 mph - N/A   Clear
1:54 AM 60.8 °F - 55.4 °F 82% 29.86 in 10.0 mi WNW 3.5 mph - N/A   Clear
2:14 AM 60.8 °F - 53.6 °F 77% 29.85 in 10.0 mi NW 3.5 mph - N/A   Clear
2:33 AM 60.8 °F - 55.4 °F 82% 29.85 in 10.0 mi NW 4.6 mph - N/A   Clear
2:54 AM 60.8 °F - 55.4 °F 82% 29.86 in 10.0 mi WNW 4.6 mph - N/A   Clear
3:14 AM 59.0 °F - 53.6 °F 82% 29.86 in 10.0 mi NW 4.6 mph - N/A   Clear
3:33 AM 59.0 °F - 55.4 °F 88% 29.86 in 10.0 mi NW 5.8 mph - N/A   Clear
3:54 AM 59.0 °F - 53.6 °F 82% 29.87 in 10.0 mi WNW 4.6 mph - N/A   Clear
4:14 AM 57.2 °F - 53.6 °F 88% 29.87 in 10.0 mi NW 5.8 mph - N/A   Clear
4:33 AM 57.2 °F - 53.6 °F 88% 29.88 in 10.0 mi WNW 5.8 mph - N/A   Clear
4:54 AM 57.2 °F - 53.6 °F 88% 29.88 in 10.0 mi WNW 5.8 mph - N/A   Clear
5:14 AM 57.2 °F - 53.6 °F 88% 29.89 in 10.0 mi West 4.6 mph - N/A   Clear
5:34 AM 55.4 °F - 53.6 °F 94% 29.89 in 10.0 mi West 5.8 mph - N/A   Clear
5:54 AM 55.4 °F - 53.6 °F 94% 29.89 in 10.0 mi West 5.8 mph - N/A   Clear
6:14 AM 55.4 °F - 53.6 °F 94% 29.89 in 10.0 mi West 5.8 mph - N/A   Clear
6:34 AM 55.4 °F - 53.6 °F 94% 29.89 in 10.0 mi West 5.8 mph - N/A   Clear
6:53 AM 55.4 °F - 53.6 °F 94% 29.89 in 10.0 mi West 4.6 mph - N/A   Clear
7:14 AM 55.4 °F - 55.4 °F 100% 29.89 in 10.0 mi West 4.6 mph - N/A   Clear
7:34 AM 57.2 °F - 55.4 °F 94% 29.90 in 10.0 mi West 4.6 mph - N/A   Clear
7:53 AM 59.0 °F - 57.2 °F 94% 29.90 in 10.0 mi WNW 4.6 mph - N/A   Clear
8:14 AM 60.8 °F - 57.2 °F 88% 29.91 in 10.0 mi WNW 5.8 mph - N/A   Clear
8:34 AM 62.6 °F - 59.0 °F 88% 29.91 in 10.0 mi WNW 6.9 mph - N/A   Clear
8:53 AM 64.4 °F - 60.8 °F 88% 29.91 in 10.0 mi WNW 5.8 mph - N/A   Clear
9:14 AM 66.2 °F - 62.6 °F 88% 29.90 in 10.0 mi Calm Calm - N/A   Clear
9:34 AM 69.8 °F - 62.6 °F 78% 29.91 in 10.0 mi Calm Calm - N/A   Clear
9:53 AM 71.6 °F - 64.4 °F 78% 29.91 in 10.0 mi Calm Calm - N/A   Clear
10:14 AM 71.6 °F - 62.6 °F 73% 29.91 in 10.0 mi SW 3.5 mph - N/A   Clear
10:34 AM 71.6 °F - 62.6 °F 73% 29.91 in 10.0 mi SW 3.5 mph - N/A   Clear
10:54 AM 73.4 °F - 62.6 °F 69% 29.91 in 10.0 mi West 4.6 mph - N/A   Clear
11:13 AM 73.4 °F - 60.8 °F 65% 29.91 in 10.0 mi WSW 4.6 mph - N/A   Clear
11:34 AM 73.4 °F - 60.8 °F 65% 29.91 in 10.0 mi WSW 8.1 mph - N/A   Clear
11:54 AM 75.2 °F - 59.0 °F 57% 29.91 in 10.0 mi WSW 4.6 mph - N/A   Clear
12:13 PM 75.2 °F - 59.0 °F 57% 29.91 in 10.0 mi WSW 8.1 mph - N/A   Clear
12:34 PM 75.2 °F - 59.0 °F 57% 29.91 in 10.0 mi SW 5.8 mph - N/A   Clear
12:54 PM 75.2 °F - 55.4 °F 50% 29.91 in 10.0 mi WSW 6.9 mph - N/A   Clear
1:13 PM 77.0 °F - 57.2 °F 50% 29.90 in 10.0 mi West 4.6 mph - N/A   Clear
1:34 PM 77.0 °F - 55.4 °F 47% 29.90 in 10.0 mi WSW 9.2 mph - N/A   Clear
1:53 PM 78.8 °F - 57.2 °F 47% 29.90 in 10.0 mi West 8.1 mph - N/A   Clear
2:14 PM 78.8 °F - 55.4 °F 44% 29.90 in 10.0 mi WSW 12.7 mph 16.1 mph N/A   Scattered Clouds
2:34 PM 78.8 °F - 53.6 °F 42% 29.89 in 10.0 mi WNW 8.1 mph - N/A   Clear
2:53 PM 78.8 °F - 53.6 °F 42% 29.89 in 10.0 mi WNW 9.2 mph - N/A   Clear
3:14 PM 78.8 °F - 55.4 °F 44% 29.89 in 10.0 mi WSW 9.2 mph - N/A   Clear
3:34 PM 78.8 °F - 55.4 °F 44% 29.88 in 10.0 mi West 9.2 mph - N/A   Scattered Clouds
3:53 PM 80.6 °F 80.5 °F 55.4 °F 42% 29.88 in 10.0 mi West 9.2 mph - N/A   Scattered Clouds
4:14 PM 80.6 °F 80.5 °F 55.4 °F 42% 29.88 in 10.0 mi West 10.4 mph - N/A   Clear
4:34 PM 80.6 °F 80.3 °F 53.6 °F 39% 29.88 in 10.0 mi WNW 8.1 mph - N/A   Clear
4:54 PM 78.8 °F - 53.6 °F 42% 29.87 in 10.0 mi West 8.1 mph - N/A   Clear
5:14 PM 80.6 °F 80.5 °F 55.4 °F 42% 29.87 in 10.0 mi West 8.1 mph - N/A   Scattered Clouds
5:54 PM 78.8 °F - 55.4 °F 44% 29.86 in 10.0 mi West 8.1 mph - N/A   Clear
6:14 PM 78.8 °F - 55.4 °F 44% 29.86 in 10.0 mi West 6.9 mph - N/A   Clear
6:34 PM 78.8 °F - 57.2 °F 47% 29.86 in 10.0 mi WSW 6.9 mph - N/A   Clear
6:54 PM 75.2 °F - 57.2 °F 53% 29.86 in 10.0 mi West 5.8 mph - N/A   Clear
7:14 PM 73.4 °F - 55.4 °F 53% 29.86 in 10.0 mi West 4.6 mph - N/A   Clear
7:34 PM 71.6 °F - 55.4 °F 57% 29.86 in 10.0 mi West 4.6 mph - N/A   Clear
7:54 PM 68.0 °F - 55.4 °F 64% 29.86 in 10.0 mi SW 3.5 mph - N/A   Clear
8:14 PM 66.2 °F - 57.2 °F 73% 29.86 in 10.0 mi SSW 3.5 mph - N/A   Clear
8:34 PM 64.4 °F - 57.2 °F 77% 29.86 in 10.0 mi SW 5.8 mph - N/A   Clear
8:54 PM 64.4 °F - 55.4 °F 73% 29.86 in 10.0 mi SW 5.8 mph - N/A   Clear
9:14 PM 64.4 °F - 57.2 °F 77% 29.86 in 10.0 mi SSW 5.8 mph - N/A   Clear
9:34 PM 64.4 °F - 55.4 °F 73% 29.86 in 10.0 mi SW 6.9 mph - N/A   Clear
9:53 PM 64.4 °F - 55.4 °F 73% 29.86 in 10.0 mi SW 6.9 mph - N/A   Clear
10:14 PM 64.4 °F - 55.4 °F 73% 29.85 in 10.0 mi SW 6.9 mph - N/A   Clear
10:34 PM 64.4 °F - 55.4 °F 73% 29.85 in 10.0 mi SW 8.1 mph - N/A   Clear
10:54 PM 64.4 °F - 55.4 °F 73% 29.85 in 10.0 mi SW 8.1 mph - N/A   Clear
11:14 PM 64.4 °F - 55.4 °F 73% 29.85 in 10.0 mi SW 10.4 mph - N/A   Clear
11:34 PM 64.4 °F - 57.2 °F 77% 29.85 in 10.0 mi SW 10.4 mph - N/A   Clear
11:54 PM 64.4 °F - 57.2 °F 77% 29.84 in 10.0 mi SW 10.4 mph 16.1 mph N/A   Clear